sensor_id;sensor_type;location;lat;lon;timestamp;P1;durP1;ratioP1;P2;durP2;ratioP2
434;SDS011;204;48.942;9.256;2022-11-20T00:01:46;10.20;;;9.60;;
434;SDS011;204;48.942;9.256;2022-11-20T00:04:11;11.67;;;9.20;;
434;SDS011;204;48.942;9.256;2022-11-20T00:06:37;13.07;;;9.23;;
434;SDS011;204;48.942;9.256;2022-11-20T00:09:03;12.77;;;8.93;;
434;SDS011;204;48.942;9.256;2022-11-20T00:11:30;13.18;;;10.38;;
434;SDS011;204;48.942;9.256;2022-11-20T00:13:58;13.70;;;10.57;;
434;SDS011;204;48.942;9.256;2022-11-20T00:16:25;12.00;;;10.30;;
434;SDS011;204;48.942;9.256;2022-11-20T00:18:53;12.32;;;9.90;;
434;SDS011;204;48.942;9.256;2022-11-20T00:21:20;11.85;;;10.30;;
434;SDS011;204;48.942;9.256;2022-11-20T00:23:50;12.07;;;10.10;;
434;SDS011;204;48.942;9.256;2022-11-20T00:26:18;13.45;;;9.25;;
434;SDS011;204;48.942;9.256;2022-11-20T00:28:48;15.50;;;11.27;;
434;SDS011;204;48.942;9.256;2022-11-20T00:31:18;16.40;;;10.75;;
434;SDS011;204;48.942;9.256;2022-11-20T00:33:44;11.25;;;10.52;;
434;SDS011;204;48.942;9.256;2022-11-20T00:36:11;12.68;;;10.55;;
434;SDS011;204;48.942;9.256;2022-11-20T00:38:40;13.60;;;9.90;;
434;SDS011;204;48.942;9.256;2022-11-20T00:41:07;13.02;;;10.43;;
434;SDS011;204;48.942;9.256;2022-11-20T00:43:33;11.98;;;9.25;;
434;SDS011;204;48.942;9.256;2022-11-20T00:46:04;14.27;;;10.73;;
434;SDS011;204;48.942;9.256;2022-11-20T00:48:31;11.40;;;9.80;;
434;SDS011;204;48.942;9.256;2022-11-20T00:50:57;13.43;;;10.80;;
434;SDS011;204;48.942;9.256;2022-11-20T00:53:22;13.13;;;11.23;;
434;SDS011;204;48.942;9.256;2022-11-20T00:55:55;12.68;;;10.27;;
434;SDS011;204;48.942;9.256;2022-11-20T00:58:22;12.40;;;9.90;;
434;SDS011;204;48.942;9.256;2022-11-20T01:00:49;12.60;;;11.45;;
434;SDS011;204;48.942;9.256;2022-11-20T01:03:15;15.07;;;11.80;;
434;SDS011;204;48.942;9.256;2022-11-20T01:05:41;21.73;;;13.95;;
434;SDS011;204;48.942;9.256;2022-11-20T01:08:07;16.13;;;12.13;;
434;SDS011;204;48.942;9.256;2022-11-20T01:10:32;15.60;;;12.90;;
434;SDS011;204;48.942;9.256;2022-11-20T01:12:58;14.60;;;11.90;;
434;SDS011;204;48.942;9.256;2022-11-20T01:15:42;16.65;;;12.15;;
434;SDS011;204;48.942;9.256;2022-11-20T01:18:08;15.23;;;11.00;;
434;SDS011;204;48.942;9.256;2022-11-20T01:20:34;16.47;;;12.40;;
434;SDS011;204;48.942;9.256;2022-11-20T01:23:01;17.63;;;11.73;;
434;SDS011;204;48.942;9.256;2022-11-20T01:25:27;17.17;;;12.50;;
434;SDS011;204;48.942;9.256;2022-11-20T01:27:53;21.37;;;13.17;;
434;SDS011;204;48.942;9.256;2022-11-20T01:30:18;17.40;;;11.87;;
434;SDS011;204;48.942;9.256;2022-11-20T01:32:44;18.33;;;12.60;;
434;SDS011;204;48.942;9.256;2022-11-20T01:35:10;21.47;;;14.30;;
434;SDS011;204;48.942;9.256;2022-11-20T01:37:35;17.57;;;13.10;;
434;SDS011;204;48.942;9.256;2022-11-20T01:40:01;18.27;;;13.53;;
434;SDS011;204;48.942;9.256;2022-11-20T01:42:27;15.97;;;13.30;;
434;SDS011;204;48.942;9.256;2022-11-20T01:48:14;20.35;;;15.35;;
434;SDS011;204;48.942;9.256;2022-11-20T01:50:40;21.17;;;15.93;;
434;SDS011;204;48.942;9.256;2022-11-20T01:53:08;22.23;;;14.60;;
434;SDS011;204;48.942;9.256;2022-11-20T01:55:41;20.60;;;14.75;;
434;SDS011;204;48.942;9.256;2022-11-20T01:58:14;19.80;;;14.98;;
434;SDS011;204;48.942;9.256;2022-11-20T02:00:41;20.60;;;15.10;;
434;SDS011;204;48.942;9.256;2022-11-20T02:03:09;20.13;;;14.80;;
434;SDS011;204;48.942;9.256;2022-11-20T02:05:40;21.95;;;15.20;;
434;SDS011;204;48.942;9.256;2022-11-20T02:08:14;17.48;;;14.35;;
434;SDS011;204;48.942;9.256;2022-11-20T02:10:40;17.27;;;14.23;;
434;SDS011;204;48.942;9.256;2022-11-20T02:13:06;15.37;;;12.67;;
434;SDS011;204;48.942;9.256;2022-11-20T02:15:51;14.60;;;12.95;;
434;SDS011;204;48.942;9.256;2022-11-20T02:18:17;14.30;;;12.47;;
434;SDS011;204;48.942;9.256;2022-11-20T02:20:45;14.43;;;11.95;;
434;SDS011;204;48.942;9.256;2022-11-20T02:23:14;15.80;;;12.52;;
434;SDS011;204;48.942;9.256;2022-11-20T02:25:46;13.35;;;11.77;;
434;SDS011;204;48.942;9.256;2022-11-20T02:28:12;14.50;;;11.05;;
434;SDS011;204;48.942;9.256;2022-11-20T02:30:38;17.00;;;13.00;;
434;SDS011;204;48.942;9.256;2022-11-20T02:33:03;12.33;;;11.07;;
434;SDS011;204;48.942;9.256;2022-11-20T02:37:55;14.43;;;10.77;;
434;SDS011;204;48.942;9.256;2022-11-20T02:40:26;13.45;;;10.45;;
434;SDS011;204;48.942;9.256;2022-11-20T02:42:52;13.30;;;11.15;;
434;SDS011;204;48.942;9.256;2022-11-20T02:45:19;11.32;;;10.32;;
434;SDS011;204;48.942;9.256;2022-11-20T02:47:44;13.20;;;11.23;;
434;SDS011;204;48.942;9.256;2022-11-20T02:50:10;11.87;;;11.17;;
434;SDS011;204;48.942;9.256;2022-11-20T02:52:36;12.30;;;11.43;;
434;SDS011;204;48.942;9.256;2022-11-20T02:55:02;15.73;;;11.23;;
434;SDS011;204;48.942;9.256;2022-11-20T02:57:28;13.57;;;11.33;;
434;SDS011;204;48.942;9.256;2022-11-20T02:59:53;12.40;;;10.63;;
434;SDS011;204;48.942;9.256;2022-11-20T03:02:19;12.07;;;10.57;;
434;SDS011;204;48.942;9.256;2022-11-20T03:04:45;13.38;;;11.27;;
434;SDS011;204;48.942;9.256;2022-11-20T03:07:11;11.53;;;10.40;;
434;SDS011;204;48.942;9.256;2022-11-20T03:09:36;15.80;;;11.53;;
434;SDS011;204;48.942;9.256;2022-11-20T03:12:02;12.43;;;10.90;;
434;SDS011;204;48.942;9.256;2022-11-20T03:14:28;13.17;;;10.47;;
434;SDS011;204;48.942;9.256;2022-11-20T03:16:53;12.47;;;11.70;;
434;SDS011;204;48.942;9.256;2022-11-20T03:19:19;13.43;;;11.07;;
434;SDS011;204;48.942;9.256;2022-11-20T03:21:45;15.20;;;11.50;;
434;SDS011;204;48.942;9.256;2022-11-20T03:24:10;17.87;;;12.53;;
434;SDS011;204;48.942;9.256;2022-11-20T03:26:37;12.30;;;10.80;;
434;SDS011;204;48.942;9.256;2022-11-20T03:29:04;12.98;;;10.48;;
434;SDS011;204;48.942;9.256;2022-11-20T03:31:31;12.23;;;10.27;;
434;SDS011;204;48.942;9.256;2022-11-20T03:33:59;12.43;;;10.82;;
434;SDS011;204;48.942;9.256;2022-11-20T03:36:26;11.02;;;9.85;;
434;SDS011;204;48.942;9.256;2022-11-20T03:38:55;10.57;;;8.50;;
434;SDS011;204;48.942;9.256;2022-11-20T03:41:25;8.57;;;7.78;;
434;SDS011;204;48.942;9.256;2022-11-20T03:43:56;10.85;;;7.43;;
434;SDS011;204;48.942;9.256;2022-11-20T03:46:26;9.15;;;7.97;;
434;SDS011;204;48.942;9.256;2022-11-20T03:48:53;7.28;;;6.43;;
434;SDS011;204;48.942;9.256;2022-11-20T03:51:23;10.73;;;7.60;;
434;SDS011;204;48.942;9.256;2022-11-20T03:53:52;7.78;;;6.57;;
434;SDS011;204;48.942;9.256;2022-11-20T03:56:22;5.82;;;5.55;;
434;SDS011;204;48.942;9.256;2022-11-20T03:58:49;7.78;;;5.65;;
434;SDS011;204;48.942;9.256;2022-11-20T04:01:24;5.60;;;4.60;;
434;SDS011;204;48.942;9.256;2022-11-20T04:03:52;7.15;;;5.25;;
434;SDS011;204;48.942;9.256;2022-11-20T04:06:23;5.20;;;4.95;;
434;SDS011;204;48.942;9.256;2022-11-20T04:08:50;6.85;;;4.40;;
434;SDS011;204;48.942;9.256;2022-11-20T04:11:18;4.57;;;4.27;;
434;SDS011;204;48.942;9.256;2022-11-20T04:13:47;4.68;;;4.40;;
434;SDS011;204;48.942;9.256;2022-11-20T04:16:16;5.28;;;4.63;;
434;SDS011;204;48.942;9.256;2022-11-20T04:18:43;5.05;;;4.75;;
434;SDS011;204;48.942;9.256;2022-11-20T04:21:09;4.50;;;4.20;;
434;SDS011;204;48.942;9.256;2022-11-20T04:23:35;4.47;;;4.15;;
434;SDS011;204;48.942;9.256;2022-11-20T04:26:06;4.90;;;4.60;;
434;SDS011;204;48.942;9.256;2022-11-20T04:28:34;5.03;;;4.30;;
434;SDS011;204;48.942;9.256;2022-11-20T04:31:10;4.90;;;4.30;;
434;SDS011;204;48.942;9.256;2022-11-20T04:33:38;5.38;;;4.18;;
434;SDS011;204;48.942;9.256;2022-11-20T04:36:09;4.40;;;3.60;;
434;SDS011;204;48.942;9.256;2022-11-20T04:38:37;4.03;;;3.83;;
434;SDS011;204;48.942;9.256;2022-11-20T04:41:04;6.50;;;4.20;;
434;SDS011;204;48.942;9.256;2022-11-20T04:43:31;4.40;;;4.10;;
434;SDS011;204;48.942;9.256;2022-11-20T04:45:57;4.53;;;4.22;;
434;SDS011;204;48.942;9.256;2022-11-20T04:48:24;3.97;;;3.25;;
434;SDS011;204;48.942;9.256;2022-11-20T04:50:51;4.32;;;4.05;;
434;SDS011;204;48.942;9.256;2022-11-20T04:53:17;4.37;;;4.07;;
434;SDS011;204;48.942;9.256;2022-11-20T04:55:43;4.17;;;3.90;;
434;SDS011;204;48.942;9.256;2022-11-20T04:58:09;4.18;;;3.95;;
434;SDS011;204;48.942;9.256;2022-11-20T05:00:35;4.40;;;4.10;;
434;SDS011;204;48.942;9.256;2022-11-20T05:03:00;3.70;;;3.53;;
434;SDS011;204;48.942;9.256;2022-11-20T05:05:26;4.07;;;3.80;;
434;SDS011;204;48.942;9.256;2022-11-20T05:07:51;4.20;;;3.97;;
434;SDS011;204;48.942;9.256;2022-11-20T05:10:17;4.70;;;3.80;;
434;SDS011;204;48.942;9.256;2022-11-20T05:12:42;3.80;;;3.67;;
434;SDS011;204;48.942;9.256;2022-11-20T05:15:08;4.47;;;4.17;;
434;SDS011;204;48.942;9.256;2022-11-20T05:17:34;4.57;;;4.28;;
434;SDS011;204;48.942;9.256;2022-11-20T05:20:00;5.20;;;4.43;;
434;SDS011;204;48.942;9.256;2022-11-20T05:22:25;4.50;;;4.20;;
434;SDS011;204;48.942;9.256;2022-11-20T05:24:51;5.07;;;4.80;;
434;SDS011;204;48.942;9.256;2022-11-20T05:27:17;4.60;;;4.30;;
434;SDS011;204;48.942;9.256;2022-11-20T05:29:42;4.07;;;3.90;;
434;SDS011;204;48.942;9.256;2022-11-20T05:32:08;6.43;;;4.60;;
434;SDS011;204;48.942;9.256;2022-11-20T05:34:34;5.95;;;4.30;;
434;SDS011;204;48.942;9.256;2022-11-20T05:37:01;4.38;;;4.07;;
434;SDS011;204;48.942;9.256;2022-11-20T05:39:27;4.65;;;4.35;;
434;SDS011;204;48.942;9.256;2022-11-20T05:41:53;5.60;;;4.60;;
434;SDS011;204;48.942;9.256;2022-11-20T05:44:37;4.85;;;4.55;;
434;SDS011;204;48.942;9.256;2022-11-20T05:47:03;4.37;;;4.07;;
434;SDS011;204;48.942;9.256;2022-11-20T05:49:29;5.37;;;4.50;;
434;SDS011;204;48.942;9.256;2022-11-20T05:51:54;4.93;;;4.63;;
434;SDS011;204;48.942;9.256;2022-11-20T05:54:20;4.13;;;3.90;;
434;SDS011;204;48.942;9.256;2022-11-20T05:56:45;5.40;;;4.50;;
434;SDS011;204;48.942;9.256;2022-11-20T05:59:11;6.50;;;5.27;;
434;SDS011;204;48.942;9.256;2022-11-20T06:01:36;8.63;;;5.63;;
434;SDS011;204;48.942;9.256;2022-11-20T06:04:02;10.33;;;8.20;;
434;SDS011;204;48.942;9.256;2022-11-20T06:06:28;12.17;;;9.27;;
434;SDS011;204;48.942;9.256;2022-11-20T06:08:53;9.43;;;7.13;;
434;SDS011;204;48.942;9.256;2022-11-20T06:11:20;8.02;;;6.90;;
434;SDS011;204;48.942;9.256;2022-11-20T06:13:45;10.27;;;8.60;;
434;SDS011;204;48.942;9.256;2022-11-20T06:16:13;12.00;;;7.38;;
434;SDS011;204;48.942;9.256;2022-11-20T06:18:40;9.05;;;6.85;;
434;SDS011;204;48.942;9.256;2022-11-20T06:21:06;6.87;;;5.63;;
434;SDS011;204;48.942;9.256;2022-11-20T06:23:34;7.38;;;6.97;;
434;SDS011;204;48.942;9.256;2022-11-20T06:26:01;6.32;;;6.00;;
434;SDS011;204;48.942;9.256;2022-11-20T06:28:28;7.10;;;5.45;;
434;SDS011;204;48.942;9.256;2022-11-20T06:30:54;8.13;;;6.73;;
434;SDS011;204;48.942;9.256;2022-11-20T06:33:19;9.13;;;8.63;;
434;SDS011;204;48.942;9.256;2022-11-20T06:35:45;7.43;;;7.00;;
434;SDS011;204;48.942;9.256;2022-11-20T06:38:10;4.90;;;4.60;;
434;SDS011;204;48.942;9.256;2022-11-20T06:40:38;4.97;;;4.30;;
434;SDS011;204;48.942;9.256;2022-11-20T06:43:05;4.93;;;4.35;;
434;SDS011;204;48.942;9.256;2022-11-20T06:45:31;5.43;;;4.13;;
434;SDS011;204;48.942;9.256;2022-11-20T06:47:59;3.90;;;3.70;;
434;SDS011;204;48.942;9.256;2022-11-20T06:50:25;5.18;;;4.88;;
434;SDS011;204;48.942;9.256;2022-11-20T06:52:50;5.40;;;5.10;;
434;SDS011;204;48.942;9.256;2022-11-20T06:55:16;4.47;;;4.17;;
434;SDS011;204;48.942;9.256;2022-11-20T06:57:41;6.20;;;4.23;;
434;SDS011;204;48.942;9.256;2022-11-20T07:00:07;3.97;;;3.77;;
434;SDS011;204;48.942;9.256;2022-11-20T07:02:33;4.50;;;4.15;;
434;SDS011;204;48.942;9.256;2022-11-20T07:04:59;3.70;;;3.50;;
434;SDS011;204;48.942;9.256;2022-11-20T07:07:24;4.60;;;3.57;;
434;SDS011;204;48.942;9.256;2022-11-20T07:09:50;3.67;;;3.47;;
434;SDS011;204;48.942;9.256;2022-11-20T07:12:15;4.57;;;4.27;;
434;SDS011;204;48.942;9.256;2022-11-20T07:14:41;5.00;;;4.70;;
434;SDS011;204;48.942;9.256;2022-11-20T07:17:07;6.40;;;5.50;;
434;SDS011;204;48.942;9.256;2022-11-20T07:19:32;5.30;;;5.00;;
434;SDS011;204;48.942;9.256;2022-11-20T07:21:58;5.50;;;5.20;;
434;SDS011;204;48.942;9.256;2022-11-20T07:24:23;6.67;;;6.27;;
434;SDS011;204;48.942;9.256;2022-11-20T07:26:49;5.00;;;4.70;;
434;SDS011;204;48.942;9.256;2022-11-20T07:29:15;6.30;;;5.43;;
434;SDS011;204;48.942;9.256;2022-11-20T07:31:41;6.97;;;6.60;;
434;SDS011;204;48.942;9.256;2022-11-20T07:34:07;7.03;;;5.97;;
434;SDS011;204;48.942;9.256;2022-11-20T07:36:33;7.07;;;6.10;;
434;SDS011;204;48.942;9.256;2022-11-20T07:38:59;5.77;;;4.90;;
434;SDS011;204;48.942;9.256;2022-11-20T07:41:24;4.57;;;4.27;;
434;SDS011;204;48.942;9.256;2022-11-20T07:43:50;6.67;;;5.40;;
434;SDS011;204;48.942;9.256;2022-11-20T07:46:15;5.10;;;4.80;;
434;SDS011;204;48.942;9.256;2022-11-20T07:48:41;6.57;;;6.17;;
434;SDS011;204;48.942;9.256;2022-11-20T07:51:06;5.47;;;4.90;;
434;SDS011;204;48.942;9.256;2022-11-20T07:53:32;5.90;;;5.60;;
434;SDS011;204;48.942;9.256;2022-11-20T07:56:01;8.23;;;6.93;;
434;SDS011;204;48.942;9.256;2022-11-20T07:58:28;7.80;;;7.40;;
434;SDS011;204;48.942;9.256;2022-11-20T08:00:55;5.95;;;5.65;;
434;SDS011;204;48.942;9.256;2022-11-20T08:03:21;6.10;;;5.78;;
434;SDS011;204;48.942;9.256;2022-11-20T08:05:46;9.77;;;7.17;;
434;SDS011;204;48.942;9.256;2022-11-20T08:08:12;11.97;;;8.77;;
434;SDS011;204;48.942;9.256;2022-11-20T08:10:37;6.93;;;5.80;;
434;SDS011;204;48.942;9.256;2022-11-20T08:13:03;11.40;;;8.00;;
434;SDS011;204;48.942;9.256;2022-11-20T08:15:50;7.00;;;5.28;;
434;SDS011;204;48.942;9.256;2022-11-20T08:18:16;4.70;;;4.40;;
434;SDS011;204;48.942;9.256;2022-11-20T08:20:42;4.25;;;3.75;;
434;SDS011;204;48.942;9.256;2022-11-20T08:23:08;5.37;;;4.97;;
434;SDS011;204;48.942;9.256;2022-11-20T08:25:34;6.30;;;4.50;;
434;SDS011;204;48.942;9.256;2022-11-20T08:28:02;4.63;;;4.32;;
434;SDS011;204;48.942;9.256;2022-11-20T08:30:29;10.52;;;6.75;;
434;SDS011;204;48.942;9.256;2022-11-20T08:32:59;6.90;;;5.50;;
434;SDS011;204;48.942;9.256;2022-11-20T08:35:26;5.50;;;5.20;;
434;SDS011;204;48.942;9.256;2022-11-20T08:37:52;5.23;;;4.93;;
434;SDS011;204;48.942;9.256;2022-11-20T08:40:18;5.50;;;5.17;;
434;SDS011;204;48.942;9.256;2022-11-20T08:42:47;4.90;;;4.60;;
434;SDS011;204;48.942;9.256;2022-11-20T08:45:13;4.70;;;4.07;;
434;SDS011;204;48.942;9.256;2022-11-20T08:47:39;4.10;;;3.90;;
434;SDS011;204;48.942;9.256;2022-11-20T08:50:06;4.35;;;4.05;;
434;SDS011;204;48.942;9.256;2022-11-20T08:52:32;4.40;;;4.10;;
434;SDS011;204;48.942;9.256;2022-11-20T08:54:57;3.90;;;3.70;;
434;SDS011;204;48.942;9.256;2022-11-20T08:57:23;4.47;;;4.17;;
434;SDS011;204;48.942;9.256;2022-11-20T08:59:49;4.23;;;3.97;;
434;SDS011;204;48.942;9.256;2022-11-20T09:02:14;4.00;;;3.30;;
434;SDS011;204;48.942;9.256;2022-11-20T09:04:40;3.40;;;3.23;;
434;SDS011;204;48.942;9.256;2022-11-20T09:07:05;3.57;;;3.37;;
434;SDS011;204;48.942;9.256;2022-11-20T09:09:31;3.20;;;3.00;;
434;SDS011;204;48.942;9.256;2022-11-20T09:11:57;3.60;;;3.40;;
434;SDS011;204;48.942;9.256;2022-11-20T09:14:23;7.63;;;3.93;;
434;SDS011;204;48.942;9.256;2022-11-20T09:16:53;3.40;;;3.20;;
434;SDS011;204;48.942;9.256;2022-11-20T09:19:20;5.57;;;4.55;;
434;SDS011;204;48.942;9.256;2022-11-20T09:21:45;3.90;;;3.70;;
434;SDS011;204;48.942;9.256;2022-11-20T09:24:11;3.73;;;3.50;;
434;SDS011;204;48.942;9.256;2022-11-20T09:26:36;2.90;;;2.70;;
434;SDS011;204;48.942;9.256;2022-11-20T09:29:02;2.80;;;2.60;;
434;SDS011;204;48.942;9.256;2022-11-20T09:31:28;3.00;;;2.80;;
434;SDS011;204;48.942;9.256;2022-11-20T09:33:53;2.50;;;2.30;;
434;SDS011;204;48.942;9.256;2022-11-20T09:36:19;2.37;;;2.17;;
434;SDS011;204;48.942;9.256;2022-11-20T09:38:45;3.27;;;2.10;;
434;SDS011;204;48.942;9.256;2022-11-20T09:42:02;2.47;;;2.20;;
434;SDS011;204;48.942;9.256;2022-11-20T09:46:55;3.67;;;3.47;;
434;SDS011;204;48.942;9.256;2022-11-20T09:52:42;3.38;;;3.17;;
434;SDS011;204;48.942;9.256;2022-11-20T09:55:10;3.20;;;2.83;;
434;SDS011;204;48.942;9.256;2022-11-20T09:57:39;2.28;;;2.08;;
434;SDS011;204;48.942;9.256;2022-11-20T10:00:12;2.30;;;2.10;;
434;SDS011;204;48.942;9.256;2022-11-20T10:02:43;1.98;;;1.90;;
434;SDS011;204;48.942;9.256;2022-11-20T10:05:40;5.38;;;2.13;;
434;SDS011;204;48.942;9.256;2022-11-20T10:30:18;3.25;;;2.90;;
434;SDS011;204;48.942;9.256;2022-11-20T10:32:47;3.75;;;2.90;;
434;SDS011;204;48.942;9.256;2022-11-20T10:35:33;2.80;;;2.60;;
434;SDS011;204;48.942;9.256;2022-11-20T10:38:05;2.92;;;2.72;;
434;SDS011;204;48.942;9.256;2022-11-20T10:40:46;2.50;;;2.30;;
434;SDS011;204;48.942;9.256;2022-11-20T10:43:18;4.47;;;2.47;;
434;SDS011;204;48.942;9.256;2022-11-20T10:48:26;2.72;;;1.70;;
434;SDS011;204;48.942;9.256;2022-11-20T11:01:45;2.20;;;2.00;;
434;SDS011;204;48.942;9.256;2022-11-20T11:07:12;1.95;;;1.90;;
434;SDS011;204;48.942;9.256;2022-11-20T11:09:50;1.60;;;1.50;;
434;SDS011;204;48.942;9.256;2022-11-20T11:12:18;4.78;;;2.05;;
434;SDS011;204;48.942;9.256;2022-11-20T11:14:50;1.98;;;1.88;;
434;SDS011;204;48.942;9.256;2022-11-20T11:17:21;2.58;;;1.98;;
434;SDS011;204;48.942;9.256;2022-11-20T11:22:31;3.63;;;2.22;;
434;SDS011;204;48.942;9.256;2022-11-20T11:24:58;5.25;;;2.97;;
434;SDS011;204;48.942;9.256;2022-11-20T11:27:24;3.78;;;3.00;;
434;SDS011;204;48.942;9.256;2022-11-20T11:29:50;8.40;;;5.53;;
434;SDS011;204;48.942;9.256;2022-11-20T11:32:29;6.30;;;5.95;;
434;SDS011;204;48.942;9.256;2022-11-20T11:35:04;3.50;;;3.00;;
434;SDS011;204;48.942;9.256;2022-11-20T11:37:38;6.68;;;3.80;;
434;SDS011;204;48.942;9.256;2022-11-20T11:40:04;4.72;;;4.43;;
434;SDS011;204;48.942;9.256;2022-11-20T11:42:32;3.13;;;2.92;;
434;SDS011;204;48.942;9.256;2022-11-20T11:44:59;5.43;;;2.30;;
434;SDS011;204;48.942;9.256;2022-11-20T11:55:09;3.63;;;2.20;;
434;SDS011;204;48.942;9.256;2022-11-20T12:00:31;3.63;;;2.13;;
434;SDS011;204;48.942;9.256;2022-11-20T12:05:40;2.90;;;2.10;;
434;SDS011;204;48.942;9.256;2022-11-20T12:08:20;2.45;;;1.58;;
434;SDS011;204;48.942;9.256;2022-11-20T12:11:04;10.13;;;7.78;;
434;SDS011;204;48.942;9.256;2022-11-20T12:16:19;3.60;;;1.70;;
434;SDS011;204;48.942;9.256;2022-11-20T12:18:46;3.95;;;2.08;;
434;SDS011;204;48.942;9.256;2022-11-20T12:21:25;1.60;;;1.50;;
434;SDS011;204;48.942;9.256;2022-11-20T12:24:06;4.47;;;3.40;;
434;SDS011;204;48.942;9.256;2022-11-20T12:27:16;6.28;;;4.78;;
434;SDS011;204;48.942;9.256;2022-11-20T12:30:08;2.53;;;2.15;;
434;SDS011;204;48.942;9.256;2022-11-20T12:43:32;2.97;;;1.35;;
434;SDS011;204;48.942;9.256;2022-11-20T12:56:57;2.58;;;1.40;;
434;SDS011;204;48.942;9.256;2022-11-20T13:02:37;3.17;;;1.77;;
434;SDS011;204;48.942;9.256;2022-11-20T13:07:53;1.52;;;1.23;;
434;SDS011;204;48.942;9.256;2022-11-20T13:13:15;1.35;;;1.00;;
434;SDS011;204;48.942;9.256;2022-11-20T13:15:47;2.55;;;1.20;;
434;SDS011;204;48.942;9.256;2022-11-20T13:18:35;2.95;;;1.02;;
434;SDS011;204;48.942;9.256;2022-11-20T13:21:17;1.70;;;1.13;;
434;SDS011;204;48.942;9.256;2022-11-20T13:23:46;1.50;;;0.90;;
434;SDS011;204;48.942;9.256;2022-11-20T13:26:22;1.75;;;1.10;;
434;SDS011;204;48.942;9.256;2022-11-20T13:31:35;1.55;;;1.45;;
434;SDS011;204;48.942;9.256;2022-11-20T13:34:07;3.17;;;1.60;;
434;SDS011;204;48.942;9.256;2022-11-20T13:36:37;2.80;;;1.35;;
434;SDS011;204;48.942;9.256;2022-11-20T13:39:23;14.30;;;10.95;;
434;SDS011;204;48.942;9.256;2022-11-20T13:41:57;1.83;;;1.73;;
434;SDS011;204;48.942;9.256;2022-11-20T13:44:36;3.42;;;1.23;;
434;SDS011;204;48.942;9.256;2022-11-20T13:47:17;2.85;;;1.05;;
434;SDS011;204;48.942;9.256;2022-11-20T13:49:52;2.97;;;1.20;;
434;SDS011;204;48.942;9.256;2022-11-20T14:00:56;2.83;;;1.05;;
434;SDS011;204;48.942;9.256;2022-11-20T14:03:22;4.15;;;1.17;;
434;SDS011;204;48.942;9.256;2022-11-20T14:05:51;2.78;;;1.20;;
434;SDS011;204;48.942;9.256;2022-11-20T14:13:54;2.50;;;1.70;;
434;SDS011;204;48.942;9.256;2022-11-20T14:16:38;1.90;;;1.00;;
434;SDS011;204;48.942;9.256;2022-11-20T14:21:48;3.60;;;2.08;;
434;SDS011;204;48.942;9.256;2022-11-20T14:24:19;2.10;;;1.40;;
434;SDS011;204;48.942;9.256;2022-11-20T14:26:46;1.70;;;0.93;;
434;SDS011;204;48.942;9.256;2022-11-20T14:29:17;1.35;;;0.70;;
434;SDS011;204;48.942;9.256;2022-11-20T14:31:45;4.80;;;1.10;;
434;SDS011;204;48.942;9.256;2022-11-20T14:34:17;2.13;;;1.15;;
434;SDS011;204;48.942;9.256;2022-11-20T14:36:45;1.42;;;1.33;;
434;SDS011;204;48.942;9.256;2022-11-20T14:39:12;1.80;;;0.80;;
434;SDS011;204;48.942;9.256;2022-11-20T14:41:52;3.20;;;1.45;;
434;SDS011;204;48.942;9.256;2022-11-20T14:44:19;4.38;;;1.30;;
434;SDS011;204;48.942;9.256;2022-11-20T14:46:57;2.83;;;1.48;;
434;SDS011;204;48.942;9.256;2022-11-20T14:49:25;2.08;;;1.20;;
434;SDS011;204;48.942;9.256;2022-11-20T14:52:01;3.10;;;1.50;;
434;SDS011;204;48.942;9.256;2022-11-20T14:54:42;3.80;;;2.80;;
434;SDS011;204;48.942;9.256;2022-11-20T14:57:18;8.63;;;2.58;;
434;SDS011;204;48.942;9.256;2022-11-20T14:59:45;4.95;;;2.95;;
434;SDS011;204;48.942;9.256;2022-11-20T15:02:11;4.97;;;4.23;;
434;SDS011;204;48.942;9.256;2022-11-20T15:05:11;4.88;;;3.58;;
434;SDS011;204;48.942;9.256;2022-11-20T15:07:33;2.10;;;1.88;;
434;SDS011;204;48.942;9.256;2022-11-20T15:10:02;2.35;;;2.03;;
434;SDS011;204;48.942;9.256;2022-11-20T15:12:29;3.10;;;1.92;;
434;SDS011;204;48.942;9.256;2022-11-20T15:14:56;2.45;;;1.80;;
434;SDS011;204;48.942;9.256;2022-11-20T15:17:22;2.35;;;2.15;;
434;SDS011;204;48.942;9.256;2022-11-20T15:19:48;2.50;;;2.23;;
434;SDS011;204;48.942;9.256;2022-11-20T15:22:14;2.73;;;1.93;;
434;SDS011;204;48.942;9.256;2022-11-20T15:24:41;1.70;;;1.48;;
434;SDS011;204;48.942;9.256;2022-11-20T15:27:07;2.00;;;1.58;;
434;SDS011;204;48.942;9.256;2022-11-20T15:29:34;1.92;;;1.60;;
434;SDS011;204;48.942;9.256;2022-11-20T15:31:59;2.73;;;1.83;;
434;SDS011;204;48.942;9.256;2022-11-20T15:34:26;4.30;;;2.17;;
434;SDS011;204;48.942;9.256;2022-11-20T15:36:52;10.82;;;10.10;;
434;SDS011;204;48.942;9.256;2022-11-20T15:39:19;4.28;;;2.53;;
434;SDS011;204;48.942;9.256;2022-11-20T15:41:45;5.10;;;2.33;;
434;SDS011;204;48.942;9.256;2022-11-20T15:44:11;4.33;;;2.57;;
434;SDS011;204;48.942;9.256;2022-11-20T15:46:37;3.23;;;2.17;;
434;SDS011;204;48.942;9.256;2022-11-20T15:49:08;3.67;;;3.05;;
434;SDS011;204;48.942;9.256;2022-11-20T15:51:38;6.47;;;3.13;;
434;SDS011;204;48.942;9.256;2022-11-20T15:54:11;5.53;;;4.05;;
434;SDS011;204;48.942;9.256;2022-11-20T15:56:43;4.45;;;4.15;;
434;SDS011;204;48.942;9.256;2022-11-20T15:59:08;4.97;;;3.87;;
434;SDS011;204;48.942;9.256;2022-11-20T16:01:34;6.20;;;3.77;;
434;SDS011;204;48.942;9.256;2022-11-20T16:04:00;5.40;;;4.73;;
434;SDS011;204;48.942;9.256;2022-11-20T16:06:26;6.53;;;4.95;;
434;SDS011;204;48.942;9.256;2022-11-20T16:08:51;9.60;;;7.47;;
434;SDS011;204;48.942;9.256;2022-11-20T16:11:17;11.67;;;8.97;;
434;SDS011;204;48.942;9.256;2022-11-20T16:13:43;13.53;;;9.73;;
434;SDS011;204;48.942;9.256;2022-11-20T16:16:29;15.90;;;11.55;;
434;SDS011;204;48.942;9.256;2022-11-20T16:18:56;14.32;;;12.05;;
434;SDS011;204;48.942;9.256;2022-11-20T16:21:22;13.60;;;11.17;;
434;SDS011;204;48.942;9.256;2022-11-20T16:24:01;8.38;;;7.07;;
434;SDS011;204;48.942;9.256;2022-11-20T16:26:29;8.57;;;6.25;;
434;SDS011;204;48.942;9.256;2022-11-20T16:28:55;10.80;;;8.80;;
434;SDS011;204;48.942;9.256;2022-11-20T16:31:21;10.97;;;10.37;;
434;SDS011;204;48.942;9.256;2022-11-20T16:33:51;7.88;;;7.03;;
434;SDS011;204;48.942;9.256;2022-11-20T16:36:18;6.53;;;6.10;;
434;SDS011;204;48.942;9.256;2022-11-20T16:38:45;6.10;;;5.43;;
434;SDS011;204;48.942;9.256;2022-11-20T16:41:10;4.43;;;3.83;;
434;SDS011;204;48.942;9.256;2022-11-20T16:43:43;8.38;;;5.05;;
434;SDS011;204;48.942;9.256;2022-11-20T16:46:09;7.13;;;4.63;;
434;SDS011;204;48.942;9.256;2022-11-20T16:48:34;5.50;;;4.57;;
434;SDS011;204;48.942;9.256;2022-11-20T16:51:00;4.30;;;3.87;;
434;SDS011;204;48.942;9.256;2022-11-20T16:53:26;5.93;;;4.40;;
434;SDS011;204;48.942;9.256;2022-11-20T16:55:51;6.80;;;4.97;;
434;SDS011;204;48.942;9.256;2022-11-20T16:58:17;3.90;;;3.70;;
434;SDS011;204;48.942;9.256;2022-11-20T17:00:42;4.23;;;3.00;;
434;SDS011;204;48.942;9.256;2022-11-20T17:03:08;5.03;;;3.50;;
434;SDS011;204;48.942;9.256;2022-11-20T17:05:34;2.73;;;2.57;;
434;SDS011;204;48.942;9.256;2022-11-20T17:08:00;3.03;;;2.70;;
434;SDS011;204;48.942;9.256;2022-11-20T17:10:26;2.95;;;2.55;;
434;SDS011;204;48.942;9.256;2022-11-20T17:12:51;3.07;;;2.87;;
434;SDS011;204;48.942;9.256;2022-11-20T17:15:17;3.23;;;2.83;;
434;SDS011;204;48.942;9.256;2022-11-20T17:17:42;5.23;;;2.77;;
434;SDS011;204;48.942;9.256;2022-11-20T17:20:08;5.67;;;3.10;;
434;SDS011;204;48.942;9.256;2022-11-20T17:22:36;3.88;;;2.95;;
434;SDS011;204;48.942;9.256;2022-11-20T17:25:02;4.67;;;3.27;;
434;SDS011;204;48.942;9.256;2022-11-20T17:27:27;6.23;;;3.60;;
434;SDS011;204;48.942;9.256;2022-11-20T17:29:53;4.53;;;3.90;;
434;SDS011;204;48.942;9.256;2022-11-20T17:32:19;4.27;;;3.90;;
434;SDS011;204;48.942;9.256;2022-11-20T17:34:44;5.23;;;4.07;;
434;SDS011;204;48.942;9.256;2022-11-20T17:37:10;5.50;;;4.33;;
434;SDS011;204;48.942;9.256;2022-11-20T17:39:36;6.47;;;4.90;;
434;SDS011;204;48.942;9.256;2022-11-20T17:42:01;3.60;;;3.47;;
434;SDS011;204;48.942;9.256;2022-11-20T17:44:46;5.55;;;5.25;;